createdAt,value
2022-09-06T00:01:02.859Z,100996.72
2022-09-06T00:03:39.960Z,100999.80
2022-09-06T00:06:16.191Z,101002.27
2022-09-06T00:08:50.489Z,100995.09
2022-09-06T00:11:25.351Z,101000.28
2022-09-06T00:13:58.929Z,100996.32
2022-09-06T00:16:32.918Z,100995.72
2022-09-06T00:19:05.956Z,100997.92
2022-09-06T00:21:39.049Z,100989.77
2022-09-06T00:24:12.516Z,100991.88
2022-09-06T00:26:45.914Z,100989.64
2022-09-06T00:29:19.345Z,100991.00
2022-09-06T00:31:52.222Z,100989.17
2022-09-06T00:34:25.263Z,100985.57
2022-09-06T00:36:58.401Z,100982.86
2022-09-06T00:39:31.677Z,100983.73
2022-09-06T00:42:07.540Z,100987.41
2022-09-06T00:44:41.578Z,100987.53
2022-09-06T00:47:14.629Z,100986.17
2022-09-06T00:49:49.309Z,100985.33
2022-09-06T00:52:23.511Z,100986.30
2022-09-06T00:54:56.483Z,100992.36
2022-09-06T00:57:32.470Z,100985.80
2022-09-06T01:00:09.386Z,100980.25
2022-09-06T01:02:44.352Z,101001.45
2022-09-06T01:05:39.169Z,100996.63
2022-09-06T01:08:26.058Z,100994.02
2022-09-06T01:11:07.577Z,101001.33
2022-09-06T01:14:09.683Z,100989.46
2022-09-06T01:17:11.580Z,100994.89
2022-09-06T01:20:13.450Z,101002.79
2022-09-06T01:23:21.268Z,101000.67
2022-09-06T01:26:18.918Z,100995.71
2022-09-06T01:28:52.524Z,101000.64
2022-09-06T01:31:50.703Z,101009.62
2022-09-06T01:34:39.765Z,100997.39
2022-09-06T01:37:15.711Z,100991.19
2022-09-06T01:39:51.403Z,100998.31
2022-09-06T01:42:29.698Z,101000.89
2022-09-06T01:45:17.407Z,100999.65
2022-09-06T01:48:00.755Z,101007.02
2022-09-06T01:50:50.528Z,101008.02
2022-09-06T01:53:49.638Z,101006.89
2022-09-06T01:56:53.245Z,101003.45
2022-09-06T02:00:13.023Z,101010.06
2022-09-06T02:03:01.792Z,101012.16
2022-09-06T02:05:51.141Z,101003.88
2022-09-06T02:08:34.806Z,101010.12
2022-09-06T02:11:09.618Z,101009.47
2022-09-06T02:13:59.407Z,101007.60
2022-09-06T02:16:32.941Z,101013.03
2022-09-06T02:19:13.807Z,101012.66
2022-09-06T02:21:47.802Z,101022.16
2022-09-06T02:24:27.740Z,101021.75
2022-09-06T02:27:01.134Z,101025.56
2022-09-06T02:29:34.601Z,101026.16
2022-09-06T02:32:26.289Z,101022.23
2022-09-06T02:34:59.823Z,101014.44
2022-09-06T02:37:33.390Z,101019.56
2022-09-06T02:40:08.354Z,101018.44
2022-09-06T02:42:42.120Z,101020.05
2022-09-06T02:45:15.524Z,101020.09
2022-09-06T02:47:50.504Z,101024.95
2022-09-06T02:50:23.421Z,101018.03
2022-09-06T02:53:13.662Z,101015.14
2022-09-06T02:55:49.036Z,101016.35
2022-09-06T02:58:22.369Z,101011.15
2022-09-06T03:01:16.652Z,101022.39
2022-09-06T03:03:49.718Z,101023.45
2022-09-06T03:06:22.820Z,101026.23
2022-09-06T03:08:56.317Z,101031.39
2022-09-06T03:11:30.520Z,101031.97
2022-09-06T03:14:03.943Z,101032.19
2022-09-06T03:16:39.912Z,101031.41
2022-09-06T03:19:13.075Z,101026.20
2022-09-06T03:21:47.420Z,101029.13
2022-09-06T03:24:20.016Z,101031.83
2022-09-06T03:26:53.020Z,101032.67
2022-09-06T03:29:26.251Z,101037.03
2022-09-06T03:32:00.582Z,101033.81
2022-09-06T03:34:33.222Z,101039.08
2022-09-06T03:37:06.246Z,101043.61
2022-09-06T03:39:39.746Z,101042.00
2022-09-06T03:42:13.034Z,101041.42
2022-09-06T03:44:46.126Z,101044.86
2022-09-06T03:47:19.849Z,101040.70
2022-09-06T03:49:52.945Z,101044.95
2022-09-06T03:52:26.177Z,101044.66
2022-09-06T03:55:00.627Z,101041.36
2022-09-06T03:57:33.921Z,101045.05
2022-09-06T04:00:07.955Z,101049.86
2022-09-06T04:02:42.808Z,101051.98
2022-09-06T04:05:16.808Z,101059.12
2022-09-06T04:07:50.070Z,101058.14
2022-09-06T04:10:23.125Z,101064.91
2022-09-06T04:12:56.880Z,101068.39
2022-09-06T04:15:30.052Z,101072.02
2022-09-06T04:18:08.535Z,101074.94
2022-09-06T04:20:37.540Z,101074.17
2022-09-06T04:23:10.457Z,101074.19
2022-09-06T04:25:46.005Z,101077.96
2022-09-06T04:28:19.767Z,101084.70
2022-09-06T04:31:05.196Z,101078.59
2022-09-06T04:33:39.145Z,101076.67
2022-09-06T04:36:12.633Z,101072.92
2022-09-06T04:38:47.531Z,101074.34
2022-09-06T04:41:21.685Z,101071.23
2022-09-06T04:43:54.931Z,101072.83
2022-09-06T04:46:31.838Z,101072.17
2022-09-06T04:49:05.885Z,101075.08
2022-09-06T04:51:39.947Z,101068.31
2022-09-06T04:54:13.254Z,101069.88
2022-09-06T04:56:47.460Z,101074.84
2022-09-06T04:59:20.614Z,101078.55
2022-09-06T05:01:53.825Z,101078.22
2022-09-06T05:04:28.770Z,101076.59
2022-09-06T05:07:03.127Z,101077.83
2022-09-06T05:09:37.190Z,101074.73
2022-09-06T05:12:11.018Z,101082.77
2022-09-06T05:14:44.509Z,101079.30
2022-09-06T05:17:17.701Z,101083.23
2022-09-06T05:19:51.437Z,101086.95
2022-09-06T05:22:24.629Z,101085.84
2022-09-06T05:24:58.882Z,101080.89
2022-09-06T05:27:31.468Z,101079.17
2022-09-06T05:30:06.020Z,101080.66
2022-09-06T05:32:39.824Z,101082.38
2022-09-06T05:35:12.948Z,101076.56
2022-09-06T05:37:45.915Z,101082.11
2022-09-06T05:40:19.519Z,101079.03
2022-09-06T05:42:52.631Z,101081.61
2022-09-06T05:45:26.436Z,101074.32
2022-09-06T05:48:00.311Z,101069.84
2022-09-06T05:50:33.646Z,101072.59
2022-09-06T05:53:06.752Z,101069.22
2022-09-06T05:55:42.850Z,101073.16
2022-09-06T05:58:15.908Z,101069.56
2022-09-06T06:00:48.987Z,101072.39
2022-09-06T06:03:22.026Z,101075.61
2022-09-06T06:05:56.447Z,101073.64
2022-09-06T06:08:29.987Z,101070.42
2022-09-06T06:11:03.399Z,101069.94
2022-09-06T06:13:38.504Z,101075.11
2022-09-06T06:16:14.503Z,101073.84
2022-09-06T06:18:51.953Z,101082.09
2022-09-06T06:21:24.934Z,101076.97
2022-09-06T06:24:19.820Z,101080.59
2022-09-06T06:26:53.922Z,101074.23
2022-09-06T06:29:28.133Z,101074.41
2022-09-06T06:32:01.289Z,101079.42
2022-09-06T06:34:35.360Z,101072.81
2022-09-06T06:37:11.310Z,101080.20
2022-09-06T06:39:44.311Z,101074.29
2022-09-06T06:42:17.488Z,101079.73
2022-09-06T06:44:56.467Z,101082.15
2022-09-06T06:47:31.252Z,101076.66
2022-09-06T06:50:04.386Z,101078.84
2022-09-06T06:52:38.044Z,101080.55
2022-09-06T06:55:11.755Z,101082.58
2022-09-06T06:57:45.512Z,101084.19
2022-09-06T07:00:18.934Z,101081.17
2022-09-06T07:02:53.268Z,101081.83
2022-09-06T07:08:03.728Z,101085.98
2022-09-06T07:10:37.275Z,101080.64
2022-09-06T07:15:57.885Z,101080.28
2022-09-06T07:18:31.739Z,101083.19
2022-09-06T07:26:21.225Z,101087.80
2022-09-06T07:29:00.923Z,101085.34
2022-09-06T07:34:08.947Z,101084.36
2022-09-06T07:36:43.271Z,101080.42
2022-09-06T07:39:17.477Z,101085.58
2022-09-06T07:41:50.089Z,101089.77
2022-09-06T07:44:23.415Z,101086.09
2022-09-06T07:49:34.750Z,101082.97
2022-09-06T07:54:41.175Z,101081.45
2022-09-06T07:57:14.253Z,101087.39
2022-09-06T07:59:47.844Z,101082.59
2022-09-06T08:02:21.126Z,101081.87
2022-09-06T08:04:56.576Z,101085.48
2022-09-06T08:07:39.034Z,101079.78
2022-09-06T08:10:07.138Z,101076.69
2022-09-06T08:12:40.440Z,101073.34
2022-09-06T08:15:14.013Z,101067.72
2022-09-06T08:17:52.597Z,101065.60
2022-09-06T08:20:25.983Z,101062.70
2022-09-06T08:23:00.286Z,101057.74
2022-09-06T08:25:34.597Z,101055.05
2022-09-06T08:28:07.162Z,101055.56
2022-09-06T08:30:40.259Z,101055.05
2022-09-06T08:33:14.072Z,101047.63
2022-09-06T08:35:49.679Z,101048.29
2022-09-06T08:38:22.858Z,101044.80
2022-09-06T08:40:57.033Z,101050.65
2022-09-06T08:43:30.185Z,101045.14
2022-09-06T08:46:04.953Z,101041.05
2022-09-06T08:48:41.525Z,101040.70
2022-09-06T08:51:43.493Z,101049.80
2022-09-06T08:54:33.995Z,101041.89
2022-09-06T08:57:23.362Z,101031.55
2022-09-06T09:00:02.601Z,101023.86
2022-09-06T09:02:46.032Z,101022.01
2022-09-06T09:05:33.667Z,101019.03
2022-09-06T09:08:49.867Z,101013.48
2022-09-06T09:11:25.750Z,101015.83
2022-09-06T09:14:24.712Z,101019.63
2022-09-06T09:17:07.754Z,101015.69
2022-09-06T09:19:42.330Z,101015.66
2022-09-06T09:22:18.347Z,101017.44
2022-09-06T09:24:53.553Z,101020.61
2022-09-06T09:27:28.317Z,101015.17
2022-09-06T09:32:45.334Z,101016.77
2022-09-06T09:35:42.827Z,101019.78
2022-09-06T09:38:27.721Z,101017.05
2022-09-06T09:41:08.108Z,101005.74
2022-09-06T09:43:47.657Z,101014.59
2022-09-06T09:46:33.272Z,101007.96
2022-09-06T09:49:12.316Z,101008.66
2022-09-06T09:52:06.578Z,101008.48
2022-09-06T09:54:45.074Z,101005.56
2022-09-06T09:57:19.898Z,101002.75
2022-09-06T09:59:59.597Z,101003.56
2022-09-06T10:02:38.482Z,101007.73
2022-09-06T10:05:20.685Z,101003.70
2022-09-06T10:07:56.946Z,101009.12
2022-09-06T10:10:36.625Z,101017.83
2022-09-06T10:13:22.091Z,101009.72
2022-09-06T10:15:55.843Z,101011.70
2022-09-06T10:18:38.032Z,101011.38
2022-09-06T10:21:19.676Z,101010.27
2022-09-06T10:24:30.427Z,101009.70
2022-09-06T10:26:58.697Z,101006.90
2022-09-06T10:29:58.650Z,101008.23
2022-09-06T10:33:02.252Z,101006.48
2022-09-06T10:35:40.155Z,101001.93
2022-09-06T10:38:41.015Z,101006.08
2022-09-06T10:41:57.946Z,101012.02
2022-09-06T10:45:19.853Z,101004.33
2022-09-06T10:48:19.103Z,101002.31
2022-09-06T10:51:10.967Z,101007.48
2022-09-06T10:53:52.279Z,101006.58
2022-09-06T10:56:35.785Z,101018.04
2022-09-06T11:02:31.238Z,101013.24
2022-09-06T11:10:38.851Z,101010.20
2022-09-06T11:13:22.076Z,101009.16
2022-09-06T11:16:18.771Z,101009.66
2022-09-06T11:19:02.975Z,101014.00
2022-09-06T11:21:44.460Z,101011.62
2022-09-06T11:24:26.766Z,101008.08
2022-09-06T11:27:25.457Z,101015.15
2022-09-06T11:29:58.952Z,101005.43
2022-09-06T11:32:48.328Z,101010.23
2022-09-06T11:35:35.248Z,101002.66
2022-09-06T11:38:19.392Z,101008.30
2022-09-06T11:41:02.309Z,101006.55
2022-09-06T11:43:53.470Z,101002.34
2022-09-06T11:46:41.186Z,101001.56
2022-09-06T11:49:38.192Z,100998.48
2022-09-06T11:52:49.394Z,101003.96
2022-09-06T11:55:38.250Z,101000.19
2022-09-06T11:58:22.154Z,100998.52
2022-09-06T12:01:22.315Z,100993.19
2022-09-06T12:04:04.160Z,100984.08
2022-09-06T12:06:44.167Z,100979.92
2022-09-06T12:09:34.078Z,100980.47
2022-09-06T12:12:11.449Z,100967.18
2022-09-06T12:14:50.518Z,100973.09
2022-09-06T12:17:23.845Z,100958.47
2022-09-06T12:20:07.812Z,100968.73
2022-09-06T12:22:52.673Z,100955.27
2022-09-06T12:25:44.144Z,100958.25
2022-09-06T12:28:31.107Z,100952.31
2022-09-06T12:31:07.526Z,100949.97
2022-09-06T12:33:43.507Z,100955.36
2022-09-06T12:36:19.591Z,100954.89
2022-09-06T12:39:13.783Z,100952.23
2022-09-06T12:41:49.876Z,100951.53
2022-09-06T12:44:28.257Z,100959.39
2022-09-06T12:47:06.131Z,100949.89
2022-09-06T12:49:39.859Z,100951.59
2022-09-06T12:52:17.862Z,100951.27
2022-09-06T12:54:51.784Z,100949.39
2022-09-06T12:57:27.966Z,100944.01
2022-09-06T13:00:01.973Z,100944.33
2022-09-06T13:02:56.891Z,100937.30
2022-09-06T13:05:30.124Z,100941.08
2022-09-06T13:08:05.238Z,100938.13
2022-09-06T13:10:40.208Z,100938.33
2022-09-06T13:13:15.349Z,100937.80
2022-09-06T13:15:50.082Z,100930.59
2022-09-06T13:18:49.329Z,100926.98
2022-09-06T13:21:34.207Z,100930.37
2022-09-06T13:24:24.908Z,100928.09
2022-09-06T13:26:57.889Z,100937.52
2022-09-06T13:29:34.396Z,100940.02
2022-09-06T13:32:14.718Z,100937.23
2022-09-06T13:34:53.990Z,100938.36
2022-09-06T13:37:29.845Z,100938.60
2022-09-06T13:40:04.849Z,100930.61
2022-09-06T13:42:38.202Z,100928.66
2022-09-06T13:45:32.344Z,100929.11
2022-09-06T13:48:26.173Z,100936.25
2022-09-06T13:50:42.018Z,100933.64
2022-09-06T13:53:19.130Z,100926.55
2022-09-06T13:55:53.132Z,100929.72
2022-09-06T13:58:27.673Z,100937.31
2022-09-06T14:01:00.171Z,100935.01
2022-09-06T14:03:33.875Z,100931.02
2022-09-06T14:06:09.081Z,100930.23
2022-09-06T14:09:05.826Z,100931.45
2022-09-06T14:11:18.530Z,100928.37
2022-09-06T14:13:51.621Z,100921.34
2022-09-06T14:16:25.220Z,100926.32
2022-09-06T14:18:59.336Z,100927.31
2022-09-06T14:21:33.177Z,100923.62
2022-09-06T14:24:06.961Z,100921.67
2022-09-06T14:26:42.983Z,100923.77
2022-09-06T14:29:17.182Z,100928.93
2022-09-06T14:31:51.577Z,100927.78
2022-09-06T14:34:25.962Z,100925.89
2022-09-06T14:36:58.857Z,100926.75
2022-09-06T14:39:32.438Z,100922.62
2022-09-06T14:42:05.740Z,100924.30
2022-09-06T14:44:40.808Z,100927.19
2022-09-06T14:49:57.921Z,100914.75
2022-09-06T14:52:31.348Z,100919.48
2022-09-06T14:55:04.819Z,100923.47
2022-09-06T14:57:38.171Z,100914.20
2022-09-06T15:00:12.739Z,100918.98
2022-09-06T15:02:47.510Z,100919.63
2022-09-06T15:05:20.468Z,100919.59
2022-09-06T15:07:54.801Z,100918.87
2022-09-06T15:10:28.416Z,100920.05
2022-09-06T15:13:02.679Z,100915.22
2022-09-06T15:15:37.033Z,100920.20
2022-09-06T15:18:10.933Z,100914.23
2022-09-06T15:20:45.146Z,100915.27
2022-09-06T15:23:25.804Z,100910.27
2022-09-06T15:25:54.381Z,100917.77
2022-09-06T15:28:27.365Z,100911.23
2022-09-06T15:31:01.904Z,100908.15
2022-09-06T15:33:34.944Z,100913.23
2022-09-06T15:36:30.311Z,100903.62
2022-09-06T15:39:04.324Z,100911.44
2022-09-06T15:41:40.379Z,100907.94
2022-09-06T15:44:16.852Z,100907.17
2022-09-06T15:46:55.282Z,100901.61
2022-09-06T15:49:33.965Z,100904.94
2022-09-06T15:52:08.171Z,100897.98
2022-09-06T15:54:52.742Z,100902.81
2022-09-06T15:57:25.744Z,100896.46
2022-09-06T15:59:59.393Z,100895.16
2022-09-06T16:02:33.393Z,100893.39
2022-09-06T16:08:03.141Z,100895.27
2022-09-06T16:10:39.935Z,100894.83
2022-09-06T16:13:13.289Z,100897.66
2022-09-06T16:15:49.577Z,100892.13
2022-09-06T16:18:24.247Z,100895.30
2022-09-06T16:20:57.651Z,100897.59
2022-09-06T16:23:31.140Z,100894.31
2022-09-06T16:26:08.134Z,100889.78
2022-09-06T16:28:41.349Z,100895.23
2022-09-06T16:31:14.401Z,100895.17
2022-09-06T16:33:49.258Z,100888.64
2022-09-06T16:36:24.806Z,100900.52
2022-09-06T16:38:58.179Z,100899.00
2022-09-06T16:41:40.896Z,100896.84
2022-09-06T16:44:17.526Z,100896.49
2022-09-06T16:46:53.560Z,100902.09
2022-09-06T16:49:27.592Z,100896.08
2022-09-06T16:52:01.097Z,100905.54
2022-09-06T16:54:37.593Z,100898.93
2022-09-06T16:57:11.375Z,100899.00
2022-09-06T16:59:45.534Z,100900.80
2022-09-06T17:02:18.879Z,100905.83
2022-09-06T17:04:54.166Z,100901.28
2022-09-06T17:07:27.979Z,100905.94
2022-09-06T17:10:01.895Z,100907.48
2022-09-06T17:12:35.691Z,100908.03
2022-09-06T17:15:10.858Z,100911.18
2022-09-06T17:17:44.487Z,100916.70
2022-09-06T17:20:19.321Z,100915.53
2022-09-06T17:22:52.951Z,100918.19
2022-09-06T17:25:26.267Z,100917.73
2022-09-06T17:28:00.488Z,100925.69
2022-09-06T17:30:34.785Z,100927.59
2022-09-06T17:33:09.604Z,100930.03
2022-09-06T17:36:17.935Z,100930.79
2022-09-06T17:38:53.359Z,100932.56
2022-09-06T17:41:39.547Z,100925.93
2022-09-06T17:44:14.897Z,100929.06
2022-09-06T17:47:09.216Z,100929.85
2022-09-06T17:49:24.890Z,100928.75
2022-09-06T17:51:59.836Z,100924.94
2022-09-06T17:54:33.786Z,100928.28
2022-09-06T17:57:06.993Z,100935.36
2022-09-06T17:59:40.939Z,100937.87
2022-09-06T18:02:14.361Z,100940.86
2022-09-06T18:04:47.687Z,100943.58
2022-09-06T18:07:21.399Z,100948.42
2022-09-06T18:09:55.707Z,100951.14
2022-09-06T18:12:31.206Z,100945.96
2022-09-06T18:15:07.040Z,100951.06
2022-09-06T18:17:42.165Z,100951.71
2022-09-06T18:20:16.304Z,100947.23
2022-09-06T18:22:49.669Z,100950.22
2022-09-06T18:25:23.486Z,100954.70
2022-09-06T18:27:57.095Z,100951.97
2022-09-06T18:30:30.703Z,100947.89
2022-09-06T18:33:03.829Z,100956.41
2022-09-06T18:35:40.152Z,100958.13
2022-09-06T18:38:14.446Z,100959.36
2022-09-06T18:40:57.855Z,100955.89
2022-09-06T18:43:33.201Z,100957.56
2022-09-06T18:46:12.936Z,100964.20
2022-09-06T18:48:46.426Z,100958.73
2022-09-06T18:51:19.624Z,100966.64
2022-09-06T18:53:53.201Z,100954.38
2022-09-06T18:56:26.874Z,100956.80
2022-09-06T18:59:00.373Z,100946.02
2022-09-06T19:01:35.293Z,100945.89
2022-09-06T19:04:09.055Z,100949.32
2022-09-06T19:06:43.667Z,100947.47
2022-09-06T19:09:17.815Z,100953.14
2022-09-06T19:11:52.409Z,100953.00
2022-09-06T19:14:27.099Z,100950.27
2022-09-06T19:17:00.419Z,100946.19
2022-09-06T19:19:34.514Z,100945.84
2022-09-06T19:22:08.052Z,100948.20
2022-09-06T19:24:42.871Z,100942.02
2022-09-06T19:27:16.205Z,100944.88
2022-09-06T19:29:49.879Z,100940.70
2022-09-06T19:32:22.826Z,100944.54
2022-09-06T19:34:55.694Z,100945.33
2022-09-06T19:37:28.833Z,100945.81
2022-09-06T19:40:02.007Z,100943.00
2022-09-06T19:42:35.334Z,100945.25
2022-09-06T19:45:10.060Z,100948.68
2022-09-06T19:47:43.483Z,100946.35
2022-09-06T19:50:18.027Z,100948.98
2022-09-06T19:52:52.084Z,100945.78
2022-09-06T19:55:24.990Z,100952.50
2022-09-06T19:57:58.770Z,100951.53
2022-09-06T20:00:35.316Z,100946.48
2022-09-06T20:03:06.703Z,100946.03
2022-09-06T20:05:40.997Z,100941.43
2022-09-06T20:08:14.418Z,100946.78
2022-09-06T20:10:59.253Z,100952.13
2022-09-06T20:13:32.986Z,100953.88
2022-09-06T20:16:07.386Z,100954.39
2022-09-06T20:18:40.501Z,100959.88
2022-09-06T20:21:18.217Z,100961.23
2022-09-06T20:23:56.785Z,100962.61
2022-09-06T20:26:51.878Z,100958.08
2022-09-06T20:29:47.098Z,100954.38
2022-09-06T20:32:19.992Z,100960.07
2022-09-06T20:34:53.626Z,100957.12
2022-09-06T20:37:29.622Z,100954.40
2022-09-06T20:40:03.341Z,100950.58
2022-09-06T20:42:37.455Z,100950.95
2022-09-06T20:45:12.613Z,100956.16
2022-09-06T20:47:46.509Z,100952.70
2022-09-06T20:50:19.526Z,100952.46
2022-09-06T20:52:54.647Z,100952.20
2022-09-06T20:55:28.085Z,100945.91
2022-09-06T20:58:01.047Z,100954.08
2022-09-06T21:00:34.107Z,100954.20
2022-09-06T21:03:07.632Z,100943.93
2022-09-06T21:05:45.068Z,100943.47
2022-09-06T21:08:18.927Z,100950.13
2022-09-06T21:11:02.305Z,100951.77
2022-09-06T21:13:36.468Z,100951.27
2022-09-06T21:16:11.181Z,100948.92
2022-09-06T21:18:43.957Z,100946.22
2022-09-06T21:21:17.089Z,100945.71
2022-09-06T21:23:50.040Z,100948.31
2022-09-06T21:26:24.047Z,100948.56
2022-09-06T21:28:57.205Z,100947.58
2022-09-06T21:31:38.810Z,100944.27
2022-09-06T21:34:16.900Z,100941.30
2022-09-06T21:36:48.329Z,100942.03
2022-09-06T21:39:21.241Z,100942.28
2022-09-06T21:41:54.133Z,100929.94
2022-09-06T21:44:28.607Z,100939.69
2022-09-06T21:47:02.374Z,100932.75
2022-09-06T21:49:35.344Z,100932.99
2022-09-06T21:52:08.922Z,100934.59
2022-09-06T21:54:42.783Z,100931.13
2022-09-06T21:57:15.850Z,100934.08
2022-09-06T21:59:50.090Z,100938.04
2022-09-06T22:02:23.958Z,100927.42
2022-09-06T22:04:58.000Z,100928.05
2022-09-06T22:07:31.142Z,100929.41
2022-09-06T22:10:04.643Z,100930.38
2022-09-06T22:12:39.151Z,100928.89
2022-09-06T22:15:13.754Z,100932.48
2022-09-06T22:17:47.999Z,100928.02
2022-09-06T22:20:22.329Z,100935.20
2022-09-06T22:23:16.089Z,100937.52
2022-09-06T22:25:49.207Z,100934.57
2022-09-06T22:28:22.520Z,100932.61
2022-09-06T22:30:56.142Z,100935.45
2022-09-06T22:33:30.642Z,100930.97
2022-09-06T22:36:25.638Z,100937.88
2022-09-06T22:38:59.325Z,100937.28
2022-09-06T22:41:34.349Z,100932.09
2022-09-06T22:44:08.041Z,100936.28
2022-09-06T22:46:41.579Z,100924.78
2022-09-06T22:49:15.105Z,100932.20
2022-09-06T22:51:48.135Z,100930.97
2022-09-06T22:54:21.322Z,100928.13
2022-09-06T22:56:55.635Z,100926.66
2022-09-06T22:59:29.898Z,100936.64
2022-09-06T23:02:03.500Z,100931.92
2022-09-06T23:04:37.925Z,100934.16
2022-09-06T23:07:11.545Z,100933.40
2022-09-06T23:09:45.212Z,100929.33
2022-09-06T23:12:18.644Z,100937.11
2022-09-06T23:14:51.883Z,100937.11
2022-09-06T23:17:26.908Z,100937.59
2022-09-06T23:20:01.078Z,100939.70
2022-09-06T23:22:35.455Z,100940.95
2022-09-06T23:25:09.833Z,100937.63
2022-09-06T23:27:44.004Z,100939.59
2022-09-06T23:30:17.884Z,100933.80
2022-09-06T23:32:51.255Z,100937.47
2022-09-06T23:35:45.170Z,100937.11
2022-09-06T23:38:18.781Z,100932.44
2022-09-06T23:40:52.078Z,100928.08
2022-09-06T23:43:25.195Z,100922.89
2022-09-06T23:45:59.894Z,100921.93
2022-09-06T23:48:52.915Z,100935.50
2022-09-06T23:51:27.363Z,100931.91
2022-09-06T23:54:01.050Z,100921.41
2022-09-06T23:56:34.470Z,100924.23
2022-09-06T23:59:07.766Z,100926.83
